createdAt,value
2023-05-01T00:08:06.389Z,100.00
2023-05-01T00:18:08.553Z,100.00
2023-05-01T00:28:10.814Z,100.00
2023-05-01T00:38:13.670Z,100.00
2023-05-01T00:48:16.709Z,100.00
2023-05-01T00:58:19.153Z,100.00
2023-05-01T01:08:24.366Z,100.00
2023-05-01T01:18:26.539Z,100.00
2023-05-01T01:28:28.617Z,100.00
2023-05-01T01:38:36.605Z,100.00
2023-05-01T01:48:42.764Z,100.00
2023-05-01T01:58:46.198Z,100.00
2023-05-01T02:08:49.331Z,100.00
2023-05-01T02:18:52.451Z,100.00
2023-05-01T02:28:55.260Z,100.00
2023-05-01T02:38:58.318Z,100.00
2023-05-01T02:49:02.181Z,100.00
2023-05-01T02:59:04.465Z,100.00
2023-05-01T03:09:06.837Z,100.00
2023-05-01T03:19:09.177Z,100.00
2023-05-01T03:29:13.714Z,100.00
2023-05-01T03:39:16.105Z,100.00
2023-05-01T03:49:18.964Z,100.00
2023-05-01T03:59:21.363Z,100.00
2023-05-01T04:09:23.677Z,100.00
2023-05-01T04:19:26.300Z,100.00
2023-05-01T04:29:28.592Z,100.00
2023-05-01T04:39:30.726Z,100.00
2023-05-01T04:49:33.519Z,100.00
2023-05-01T04:59:35.982Z,100.00
2023-05-01T05:09:38.586Z,100.00
2023-05-01T05:19:41.290Z,100.00
2023-05-01T05:29:43.960Z,100.00
2023-05-01T05:39:46.403Z,100.00
2023-05-01T05:49:49.257Z,100.00
2023-05-01T05:59:51.577Z,100.00
2023-05-01T06:09:54.046Z,100.00
2023-05-01T06:19:56.911Z,100.00
2023-05-01T06:29:59.467Z,100.00
2023-05-01T06:40:02.187Z,100.00
2023-05-01T06:50:06.253Z,100.00
2023-05-01T07:00:11.112Z,100.00
2023-05-01T07:10:13.486Z,100.00
2023-05-01T07:20:17.329Z,100.00
2023-05-01T07:30:20.822Z,100.00
2023-05-01T07:40:23.141Z,100.00
2023-05-01T07:50:26.229Z,100.00
2023-05-01T08:00:28.606Z,100.00
2023-05-01T08:10:30.803Z,100.00
2023-05-01T08:20:33.269Z,100.00
2023-05-01T08:30:35.678Z,100.00
2023-05-01T08:40:41.829Z,100.00
2023-05-01T08:50:46.433Z,100.00
2023-05-01T09:00:49.113Z,100.00
2023-05-01T09:10:53.004Z,100.00
2023-05-01T09:20:56.190Z,100.00
2023-05-01T09:30:58.841Z,100.00
2023-05-01T09:41:05.850Z,100.00
2023-05-01T09:51:27.499Z,100.00
2023-05-01T10:01:43.561Z,100.00
2023-05-01T10:11:54.824Z,100.00
2023-05-01T10:21:57.058Z,100.00
2023-05-01T10:32:00.463Z,100.00
2023-05-01T10:42:05.568Z,100.00
2023-05-01T10:52:07.901Z,100.00
2023-05-01T11:02:22.289Z,100.00
2023-05-01T11:12:43.288Z,100.00
2023-05-01T11:22:48.663Z,100.00
2023-05-01T11:32:51.688Z,100.00
2023-05-01T11:43:07.698Z,100.00
2023-05-01T11:53:20.725Z,100.00
2023-05-01T12:03:23.494Z,92.32
2023-05-01T12:13:27.295Z,93.32
2023-05-01T12:23:34.176Z,83.00
2023-05-01T12:33:36.591Z,84.74
2023-05-01T12:43:39.183Z,83.08
2023-05-01T12:53:44.175Z,84.32
2023-05-01T13:03:46.546Z,83.84
2023-05-01T13:13:50.733Z,74.61
2023-05-01T13:23:57.553Z,71.54
2023-05-01T13:34:04.652Z,69.94
2023-05-01T13:44:07.343Z,76.57
2023-05-01T13:54:13.505Z,71.92
2023-05-01T14:04:18.089Z,59.65
2023-05-01T14:14:20.509Z,68.08
2023-05-01T14:24:23.149Z,56.42
2023-05-01T14:34:26.869Z,72.86
2023-05-01T14:44:30.952Z,68.89
2023-05-01T14:54:36.515Z,91.21
2023-05-01T15:04:40.550Z,96.23
2023-05-01T15:14:43.407Z,74.60
2023-05-01T15:24:46.574Z,72.43
2023-05-01T15:34:50.462Z,69.73
2023-05-01T15:44:53.861Z,79.41
2023-05-01T15:54:56.896Z,79.07
2023-05-01T16:04:59.656Z,81.26
2023-05-01T16:15:03.943Z,90.68
2023-05-01T16:25:08.111Z,92.92
2023-05-01T16:35:11.232Z,96.21
2023-05-01T16:45:13.688Z,93.12
2023-05-01T16:55:16.368Z,94.16
2023-05-01T17:05:18.832Z,97.72
2023-05-01T17:15:21.385Z,100.00
2023-05-01T17:25:23.844Z,100.00
2023-05-01T17:35:26.817Z,100.00
2023-05-01T17:45:29.288Z,100.00
2023-05-01T17:55:31.623Z,100.00
2023-05-01T18:05:34.320Z,100.00
2023-05-01T18:15:36.657Z,100.00
2023-05-01T18:25:39.771Z,100.00
2023-05-01T18:35:42.920Z,100.00
2023-05-01T18:45:45.416Z,100.00
2023-05-01T18:55:48.024Z,100.00
2023-05-01T19:05:50.321Z,100.00
2023-05-01T19:15:53.735Z,100.00
2023-05-01T19:25:55.855Z,100.00
2023-05-01T19:35:58.222Z,100.00
2023-05-01T19:46:00.543Z,100.00
2023-05-01T19:56:03.240Z,100.00
2023-05-01T20:06:06.686Z,100.00
2023-05-01T20:16:10.414Z,100.00
2023-05-01T20:26:13.127Z,100.00
2023-05-01T20:36:17.622Z,100.00
2023-05-01T20:46:20.610Z,100.00
2023-05-01T20:56:24.551Z,100.00
2023-05-01T21:06:28.387Z,100.00
2023-05-01T21:16:31.044Z,100.00
2023-05-01T21:26:33.600Z,100.00
2023-05-01T21:36:43.136Z,100.00
2023-05-01T21:46:45.566Z,100.00
2023-05-01T21:56:48.684Z,100.00
2023-05-01T22:06:51.344Z,100.00
2023-05-01T22:16:54.063Z,100.00
2023-05-01T22:26:56.218Z,100.00
2023-05-01T22:36:58.936Z,100.00
2023-05-01T22:47:01.650Z,100.00
2023-05-01T22:57:04.236Z,100.00
2023-05-01T23:07:06.731Z,100.00
2023-05-01T23:17:10.424Z,100.00
2023-05-01T23:27:15.293Z,100.00
2023-05-01T23:37:17.831Z,100.00
2023-05-01T23:47:21.048Z,100.00
2023-05-01T23:57:23.542Z,100.00
